Time;durP1;ratioP1;P1;durP2;ratioP2;P2;SDS_P1;SDS_P2;PMS_P1;PMS_P2;Temp;Humidity;BMP_temperature;BMP_pressure;BME280_temperature;BME280_humidity;BME280_pressure;Samples;Min_cycle;Max_cycle;Signal;HPM_P1;HPM_P2
2023/04/24 00:00:58;;;;;;;0.20;0.20;;;11.10;99.90;;;;;;5053041;28;20114;-74
2023/04/24 00:03:24;;;;;;;0.20;0.20;;;11.00;99.90;;;;;;5053228;28;20498;-74
2023/04/24 00:05:50;;;;;;;0.20;0.20;;;11.00;99.90;;;;;;5052674;28;20036;-74
2023/04/24 00:08:17;;;;;;;0.17;0.17;;;11.00;99.90;;;;;;5052630;28;20017;-74
2023/04/24 00:10:42;;;;;;;0.20;0.20;;;11.00;99.90;;;;;;5034595;28;20116;-75
2023/04/24 00:13:08;;;;;;;0.20;0.20;;;11.00;99.90;;;;;;5053261;28;20069;-75
2023/04/24 00:15:34;;;;;;;0.20;0.20;;;10.90;99.90;;;;;;5052877;28;20025;-74
2023/04/24 00:18:01;;;;;;;0.20;0.20;;;10.90;99.90;;;;;;5052534;28;20033;-74
2023/04/24 00:20:28;;;;;;;0.10;0.10;;;10.90;99.90;;;;;;5053052;28;20027;-75
2023/04/24 00:22:53;;;;;;;0.15;0.15;;;10.90;99.90;;;;;;5052437;28;20021;-75
2023/04/24 00:25:19;;;;;;;0.15;0.15;;;10.90;99.90;;;;;;5034952;28;20112;-75
2023/04/24 00:27:44;;;;;;;0.15;0.15;;;10.90;99.90;;;;;;5052479;28;20044;-75
2023/04/24 00:30:10;;;;;;;0.10;0.10;;;10.90;99.90;;;;;;5034753;28;20025;-75
2023/04/24 00:32:36;;;;;;;0.20;0.20;;;10.90;99.90;;;;;;5035096;28;20025;-75
2023/04/24 00:35:01;;;;;;;0.20;0.20;;;10.90;99.90;;;;;;5052619;28;20029;-75
2023/04/24 00:37:27;;;;;;;0.20;0.20;;;10.90;99.90;;;;;;5029233;23;20495;-75
2023/04/24 00:39:52;;;;;;;0.10;0.10;;;10.90;99.90;;;;;;5012920;28;20038;-75
2023/04/24 00:42:18;;;;;;;0.10;0.10;;;10.90;99.90;;;;;;5012609;28;20136;-75
2023/04/24 00:44:44;;;;;;;0.20;0.20;;;10.90;99.90;;;;;;4995313;28;20081;-75
2023/04/24 00:47:12;;;;;;;0.10;0.10;;;10.90;99.90;;;;;;5026474;28;20029;-74
2023/04/24 00:49:38;;;;;;;0.20;0.20;;;10.90;99.90;;;;;;5032041;28;20083;-74
2023/04/24 00:52:08;;;;;;;0.20;0.20;;;10.90;99.90;;;;;;5032614;28;20390;-75
2023/04/24 00:54:35;;;;;;;0.20;0.20;;;10.80;99.90;;;;;;5014613;28;20029;-75
2023/04/24 00:57:02;;;;;;;0.20;0.20;;;10.80;99.90;;;;;;5034769;28;20029;-76
2023/04/24 00:59:27;;;;;;;0.10;0.10;;;10.80;99.90;;;;;;5036200;28;20022;-76
2023/04/24 01:01:54;;;;;;;0.17;0.17;;;10.80;99.90;;;;;;5035928;28;20101;-76
2023/04/24 01:04:20;;;;;;;0.20;0.20;;;10.80;99.90;;;;;;5035220;28;20044;-76
2023/04/24 01:06:45;;;;;;;0.10;0.10;;;10.80;99.90;;;;;;5035476;28;20067;-76
2023/04/24 01:09:12;;;;;;;0.10;0.10;;;10.80;99.90;;;;;;5018125;28;20434;-76
2023/04/24 01:11:39;;;;;;;0.15;0.15;;;10.80;99.90;;;;;;5017318;28;20483;-77
2023/04/24 01:14:07;;;;;;;0.10;0.10;;;10.80;99.90;;;;;;5035948;28;20479;-76
2023/04/24 01:16:33;;;;;;;0.20;0.20;;;10.80;99.90;;;;;;5035382;28;20029;-76
2023/04/24 01:18:58;;;;;;;0.13;0.13;;;10.80;99.90;;;;;;5035621;28;20033;-77
2023/04/24 01:21:27;;;;;;;0.15;0.15;;;10.80;99.90;;;;;;5035410;28;20036;-77
2023/04/24 01:23:53;;;;;;;0.20;0.20;;;10.80;99.90;;;;;;5035143;28;20387;-76
2023/04/24 01:26:20;;;;;;;0.10;0.10;;;10.80;99.90;;;;;;5035768;28;20021;-76
2023/04/24 01:28:48;;;;;;;0.20;0.20;;;10.80;99.90;;;;;;5035571;28;20024;-76
2023/04/24 01:31:15;;;;;;;0.20;0.20;;;10.70;99.90;;;;;;5035484;28;20109;-76
2023/04/24 01:33:42;;;;;;;0.20;0.20;;;10.70;99.90;;;;;;5017302;28;20083;-76
2023/04/24 01:36:11;;;;;;;0.20;0.20;;;10.70;99.90;;;;;;5034636;28;20464;-76
2023/04/24 01:38:36;;;;;;;0.10;0.10;;;10.70;99.90;;;;;;5035306;28;20113;-76
2023/04/24 01:41:02;;;;;;;0.10;0.10;;;10.70;99.90;;;;;;5034838;28;20183;-77
2023/04/24 01:43:28;;;;;;;0.20;0.20;;;10.70;99.90;;;;;;5035102;28;20100;-76
2023/04/24 01:45:53;;;;;;;0.10;0.10;;;10.70;99.90;;;;;;5034337;28;20498;-77
2023/04/24 01:48:19;;;;;;;0.10;0.10;;;10.70;99.90;;;;;;5035203;28;20387;-76
2023/04/24 01:50:47;;;;;;;0.20;0.20;;;10.60;99.90;;;;;;5034991;28;20028;-76
2023/04/24 01:53:13;;;;;;;0.20;0.20;;;10.60;99.90;;;;;;5034904;28;20080;-76
2023/04/24 01:55:39;;;;;;;0.10;0.10;;;10.50;99.90;;;;;;5016688;28;20025;-77
2023/04/24 01:58:04;;;;;;;0.10;0.10;;;10.40;99.90;;;;;;5034616;28;20030;-77
2023/04/24 02:00:30;;;;;;;0.10;0.10;;;10.40;99.90;;;;;;5034945;28;20112;-76
2023/04/24 02:02:55;;;;;;;0.20;0.20;;;10.30;99.90;;;;;;5034306;28;20024;-76
2023/04/24 02:05:21;;;;;;;0.20;0.20;;;10.20;99.90;;;;;;5034405;28;20072;-77
2023/04/24 02:07:47;;;;;;;0.15;0.15;;;10.10;99.90;;;;;;5040809;23;20087;-76
2023/04/24 02:10:12;;;;;;;0.20;0.20;;;10.10;99.90;;;;;;5034797;28;20100;-77
2023/04/24 02:12:38;;;;;;;0.20;0.20;;;10.10;99.90;;;;;;5034391;28;20490;-76
2023/04/24 02:15:04;;;;;;;0.13;0.13;;;10.10;99.90;;;;;;5034285;28;20708;-76
2023/04/24 02:17:30;;;;;;;0.20;0.20;;;10.10;99.90;;;;;;5050349;28;20056;-76
2023/04/24 02:19:56;;;;;;;0.20;0.20;;;10.10;99.90;;;;;;5054356;28;20047;-76
2023/04/24 02:22:21;;;;;;;0.20;0.20;;;10.10;99.90;;;;;;5036246;28;20013;-76
2023/04/24 02:24:47;;;;;;;0.20;0.20;;;10.00;99.90;;;;;;5054090;28;20021;-77
2023/04/24 02:27:13;;;;;;;0.20;0.20;;;10.00;99.90;;;;;;5053883;28;20021;-76
2023/04/24 02:29:38;;;;;;;0.10;0.10;;;10.00;99.90;;;;;;5053551;28;20167;-76
2023/04/24 02:32:04;;;;;;;0.20;0.20;;;10.00;99.90;;;;;;5036168;28;20025;-77
2023/04/24 02:34:29;;;;;;;0.15;0.15;;;10.00;99.90;;;;;;5054298;28;20018;-76
2023/04/24 02:36:55;;;;;;;0.10;0.10;;;10.00;99.90;;;;;;5053778;28;20095;-76
2023/04/24 02:39:20;;;;;;;0.15;0.15;;;10.00;99.90;;;;;;5036359;28;20043;-77
2023/04/24 02:41:46;;;;;;;0.10;0.10;;;10.00;99.90;;;;;;5035893;28;20487;-76
2023/04/24 02:44:11;;;;;;;0.10;0.10;;;10.10;99.90;;;;;;5035574;28;20028;-76
2023/04/24 02:46:37;;;;;;;0.20;0.20;;;10.20;99.90;;;;;;5053478;28;20492;-76
2023/04/24 02:49:02;;;;;;;0.20;0.20;;;10.30;99.90;;;;;;5053680;28;20041;-76
2023/04/24 02:51:29;;;;;;;0.20;0.20;;;10.30;99.90;;;;;;5053437;28;20036;-75
2023/04/24 02:53:55;;;;;;;0.20;0.20;;;10.30;99.90;;;;;;5045731;28;20021;-76
2023/04/24 02:56:20;;;;;;;0.10;0.10;;;10.40;99.90;;;;;;5033390;28;20085;-76
2023/04/24 02:58:49;;;;;;;0.10;0.10;;;10.40;99.90;;;;;;5033617;28;20079;-76
2023/04/24 03:01:15;;;;;;;0.20;0.20;;;10.50;99.90;;;;;;5034656;28;20053;-76
2023/04/24 03:03:40;;;;;;;0.10;0.10;;;10.50;99.90;;;;;;5053257;28;20517;-76
2023/04/24 03:06:07;;;;;;;0.20;0.20;;;10.50;99.90;;;;;;5035400;28;20116;-76
2023/04/24 03:08:35;;;;;;;0.13;0.13;;;10.50;99.90;;;;;;5053554;28;20041;-76
2023/04/24 03:11:01;;;;;;;0.20;0.20;;;10.60;99.90;;;;;;5053018;28;20505;-75
2023/04/24 03:13:26;;;;;;;0.10;0.10;;;10.60;99.90;;;;;;5053484;28;20033;-75
2023/04/24 03:15:52;;;;;;;0.20;0.20;;;10.60;99.90;;;;;;5035126;28;20066;-75
2023/04/24 03:18:18;;;;;;;0.15;0.15;;;10.60;99.90;;;;;;5052525;28;20021;-76
2023/04/24 03:20:46;;;;;;;0.20;0.20;;;10.60;99.90;;;;;;5035201;28;20035;-76
2023/04/24 03:23:11;;;;;;;0.15;0.15;;;10.60;99.90;;;;;;5053473;28;20124;-74
2023/04/24 03:25:37;;;;;;;0.10;0.10;;;10.60;99.90;;;;;;5052586;28;20099;-76
2023/04/24 03:28:02;;;;;;;0.10;0.10;;;10.60;99.90;;;;;;5053165;28;20095;-76
2023/04/24 03:30:28;;;;;;;0.20;0.20;;;10.60;99.90;;;;;;5035065;28;20158;-75
2023/04/24 03:32:54;;;;;;;0.20;0.20;;;10.60;99.90;;;;;;5034774;28;20021;-76
2023/04/24 03:35:21;;;;;;;0.17;0.17;;;10.60;99.90;;;;;;5034936;28;20032;-76
2023/04/24 03:37:46;;;;;;;0.20;0.20;;;10.60;99.90;;;;;;5052823;28;20437;-76
2023/04/24 03:40:14;;;;;;;0.10;0.10;;;10.60;99.90;;;;;;5053244;28;20017;-76
2023/04/24 03:42:40;;;;;;;0.20;0.20;;;10.60;99.90;;;;;;5034447;28;20035;-76
2023/04/24 03:45:06;;;;;;;0.10;0.10;;;10.60;99.90;;;;;;5052979;28;20021;-76
2023/04/24 03:47:31;;;;;;;0.10;0.10;;;10.60;99.90;;;;;;5052841;28;20473;-75
2023/04/24 03:49:57;;;;;;;0.20;0.20;;;10.60;99.90;;;;;;5052999;28;20025;-76
2023/04/24 03:52:23;;;;;;;0.10;0.10;;;10.60;99.90;;;;;;5052715;28;20044;-75
2023/04/24 03:54:48;;;;;;;0.10;0.10;;;10.60;99.90;;;;;;5052647;28;20060;-76
2023/04/24 03:57:14;;;;;;;0.20;0.20;;;10.60;99.90;;;;;;5052844;28;20021;-75
2023/04/24 03:59:39;;;;;;;0.10;0.10;;;10.70;99.90;;;;;;5052606;28;20021;-75
2023/04/24 04:02:07;;;;;;;0.20;0.20;;;10.60;99.90;;;;;;5035044;28;20398;-75
2023/04/24 04:04:33;;;;;;;0.20;0.20;;;10.60;99.90;;;;;;5052194;28;20040;-76
2023/04/24 04:07:01;;;;;;;0.17;0.17;;;10.60;99.90;;;;;;5052642;28;20045;-75
2023/04/24 04:09:26;;;;;;;0.20;0.20;;;10.60;99.90;;;;;;5052904;28;20025;-75
2023/04/24 04:11:52;;;;;;;0.20;0.20;;;10.60;99.90;;;;;;5052596;28;20021;-75
2023/04/24 04:14:21;;;;;;;0.20;0.20;;;10.60;99.90;;;;;;5052357;28;20096;-75
2023/04/24 04:16:47;;;;;;;0.20;0.20;;;10.70;99.90;;;;;;5052645;28;20017;-76
2023/04/24 04:19:12;;;;;;;0.13;0.13;;;10.50;99.90;;;;;;5053127;28;20544;-76
2023/04/24 04:21:38;;;;;;;0.10;0.10;;;10.50;99.90;;;;;;5034625;28;20104;-76
2023/04/24 04:24:05;;;;;;;0.20;0.20;;;10.50;99.90;;;;;;5052602;28;20043;-76
2023/04/24 04:26:32;;;;;;;0.20;0.20;;;10.50;99.90;;;;;;5051711;28;20110;-75
2023/04/24 04:28:58;;;;;;;0.10;0.10;;;10.40;99.90;;;;;;5052663;28;20164;-76
2023/04/24 04:31:24;;;;;;;0.17;0.17;;;10.40;99.90;;;;;;5055646;28;20036;-75
2023/04/24 04:33:50;;;;;;;0.10;0.10;;;10.20;99.90;;;;;;5056374;28;20017;-76
2023/04/24 04:36:17;;;;;;;0.20;0.20;;;10.00;99.90;;;;;;5055863;28;20100;-76
2023/04/24 04:38:42;;;;;;;0.20;0.20;;;10.00;99.90;;;;;;5056268;28;20017;-76
2023/04/24 04:41:08;;;;;;;0.15;0.15;;;9.90;99.90;;;;;;5056116;28;20567;-76
2023/04/24 04:43:34;;;;;;;0.20;0.20;;;9.90;99.90;;;;;;5056127;28;20029;-76
2023/04/24 04:46:00;;;;;;;0.10;0.10;;;9.90;99.90;;;;;;5055561;28;20028;-76
2023/04/24 04:48:27;;;;;;;0.20;0.20;;;10.00;99.90;;;;;;5055693;28;20021;-76
2023/04/24 04:50:52;;;;;;;0.20;0.20;;;10.00;99.90;;;;;;5038163;28;20521;-75
2023/04/24 04:53:18;;;;;;;0.10;0.10;;;10.00;99.90;;;;;;5055834;28;20036;-76
2023/04/24 04:55:43;;;;;;;0.20;0.20;;;10.00;99.90;;;;;;5055977;28;20025;-76
2023/04/24 04:58:09;;;;;;;0.20;0.20;;;9.90;99.90;;;;;;5055351;28;20526;-75
2023/04/24 05:00:37;;;;;;;0.13;0.13;;;9.90;99.90;;;;;;5055541;28;20025;-76
2023/04/24 05:03:02;;;;;;;0.20;0.20;;;9.90;99.90;;;;;;5038042;28;20022;-76
2023/04/24 05:05:28;;;;;;;0.10;0.10;;;9.90;99.90;;;;;;5037883;28;20079;-76
2023/04/24 05:07:54;;;;;;;0.20;0.20;;;9.80;99.90;;;;;;5055618;28;20037;-76
2023/04/24 05:10:19;;;;;;;0.20;0.20;;;9.80;99.90;;;;;;5055523;28;20032;-76
2023/04/24 05:12:45;;;;;;;0.20;0.20;;;9.80;99.90;;;;;;5037402;28;20495;-75
2023/04/24 05:15:11;;;;;;;0.20;0.20;;;9.90;99.90;;;;;;5055871;28;20546;-76
2023/04/24 05:17:36;;;;;;;0.20;0.20;;;9.80;99.90;;;;;;5055246;28;20032;-76
2023/04/24 05:20:05;;;;;;;0.20;0.20;;;9.80;99.90;;;;;;5055107;28;20028;-76
2023/04/24 05:22:33;;;;;;;0.20;0.20;;;9.80;99.90;;;;;;5055298;28;20028;-76
2023/04/24 05:24:59;;;;;;;0.10;0.10;;;9.80;99.90;;;;;;5055535;28;20020;-76
2023/04/24 05:27:24;;;;;;;0.20;0.20;;;9.70;99.90;;;;;;5037663;28;20135;-76
2023/04/24 05:29:50;;;;;;;0.20;0.20;;;9.70;99.90;;;;;;5055175;28;20021;-76
2023/04/24 05:32:16;;;;;;;0.10;0.10;;;9.70;99.90;;;;;;5054978;28;20486;-76
2023/04/24 05:34:42;;;;;;;0.20;0.20;;;9.60;99.90;;;;;;5054954;28;20027;-75
2023/04/24 05:37:09;;;;;;;0.20;0.20;;;9.70;99.90;;;;;;5055107;28;20100;-76
2023/04/24 05:39:35;;;;;;;0.10;0.10;;;9.70;99.90;;;;;;5037175;28;20075;-76
2023/04/24 05:42:01;;;;;;;0.15;0.15;;;9.70;99.90;;;;;;5036566;28;20032;-76
2023/04/24 05:44:30;;;;;;;0.20;0.20;;;9.70;99.90;;;;;;5055444;28;20027;-75
2023/04/24 05:46:56;;;;;;;0.20;0.20;;;9.70;99.90;;;;;;5054362;28;20035;-75
2023/04/24 05:49:22;;;;;;;0.10;0.10;;;9.70;99.90;;;;;;5037188;28;20108;-76
2023/04/24 05:51:47;;;;;;;0.20;0.20;;;9.60;99.90;;;;;;5054990;28;20076;-76
2023/04/24 05:54:13;;;;;;;0.20;0.20;;;9.60;99.90;;;;;;5055112;28;20029;-76
2023/04/24 05:56:39;;;;;;;0.10;0.10;;;9.60;99.90;;;;;;5053828;28;20029;-76
2023/04/24 05:59:04;;;;;;;0.20;0.20;;;9.60;99.90;;;;;;5036848;28;20021;-76
2023/04/24 06:01:31;;;;;;;0.10;0.10;;;9.60;99.90;;;;;;5037017;28;20032;-77
2023/04/24 06:03:56;;;;;;;0.10;0.10;;;9.60;99.90;;;;;;5054472;28;20017;-76
2023/04/24 06:06:23;;;;;;;0.10;0.10;;;9.60;99.90;;;;;;5036217;28;20036;-76
2023/04/24 06:08:49;;;;;;;0.13;0.13;;;9.70;99.90;;;;;;5036977;28;20078;-76
2023/04/24 06:11:14;;;;;;;0.20;0.20;;;9.80;99.90;;;;;;5054154;28;20025;-76
2023/04/24 06:13:40;;;;;;;0.20;0.20;;;9.70;99.90;;;;;;5054633;28;20375;-76
2023/04/24 06:16:05;;;;;;;0.15;0.15;;;9.80;99.90;;;;;;5054377;28;20064;-76
2023/04/24 06:18:33;;;;;;;0.20;0.20;;;9.90;99.90;;;;;;5054700;28;20051;-76
2023/04/24 06:20:58;;;;;;;0.20;0.20;;;9.80;99.90;;;;;;5035846;28;20124;-76
2023/04/24 06:23:25;;;;;;;0.20;0.20;;;9.80;99.90;;;;;;5036399;28;20112;-76
2023/04/24 06:25:51;;;;;;;0.20;0.20;;;9.70;99.90;;;;;;5053977;28;20021;-76
2023/04/24 06:28:16;;;;;;;0.20;0.20;;;9.70;99.90;;;;;;5053755;28;20028;-76
2023/04/24 06:30:45;;;;;;;0.20;0.20;;;9.70;99.90;;;;;;5054330;28;20028;-76
2023/04/24 06:33:11;;;;;;;0.20;0.20;;;9.70;99.90;;;;;;5053914;28;20020;-76
2023/04/24 06:35:37;;;;;;;0.20;0.20;;;9.70;99.90;;;;;;5054001;28;20100;-76
2023/04/24 06:38:03;;;;;;;0.10;0.10;;;9.70;99.90;;;;;;5053549;28;20025;-77
2023/04/24 06:40:29;;;;;;;0.10;0.10;;;9.60;99.90;;;;;;5054152;28;20037;-77
2023/04/24 06:42:55;;;;;;;0.10;0.10;;;9.60;99.90;;;;;;5054078;28;20062;-76
2023/04/24 06:45:20;;;;;;;0.17;0.17;;;9.50;99.90;;;;;;5054064;28;20017;-77
2023/04/24 06:47:46;;;;;;;0.10;0.10;;;9.60;99.90;;;;;;5067592;23;20123;-76
2023/04/24 06:50:12;;;;;;;0.17;0.17;;;9.60;99.90;;;;;;4996648;28;20033;-76
2023/04/24 06:52:37;;;;;;;0.10;0.10;;;9.70;99.90;;;;;;4996169;28;20034;-76
2023/04/24 06:55:04;;;;;;;0.10;0.10;;;9.70;99.90;;;;;;5013244;28;20080;-78
2023/04/24 06:57:30;;;;;;;0.10;0.10;;;9.70;99.90;;;;;;5030405;28;20399;-77
2023/04/24 06:59:55;;;;;;;0.10;0.10;;;9.80;99.90;;;;;;5034744;28;20030;-77
2023/04/24 07:02:21;;;;;;;0.10;0.10;;;9.80;99.90;;;;;;5035104;28;20109;-77
2023/04/24 07:04:47;;;;;;;0.20;0.20;;;9.90;99.90;;;;;;5034244;28;20076;-77
2023/04/24 07:07:14;;;;;;;0.20;0.20;;;10.10;99.90;;;;;;5034579;28;20438;-77
2023/04/24 07:09:42;;;;;;;0.20;0.20;;;10.00;99.90;;;;;;5017262;28;20018;-77
2023/04/24 07:12:08;;;;;;;0.20;0.20;;;10.00;99.90;;;;;;5034086;28;20021;-77
2023/04/24 07:14:34;;;;;;;0.20;0.20;;;10.00;99.90;;;;;;5034355;28;20087;-77
2023/04/24 07:17:01;;;;;;;0.10;0.10;;;10.10;99.90;;;;;;5034953;28;20025;-76
2023/04/24 07:19:26;;;;;;;0.20;0.20;;;10.10;99.90;;;;;;5034634;28;20021;-77
2023/04/24 07:21:53;;;;;;;0.20;0.20;;;10.20;99.90;;;;;;5017892;28;20048;-77
2023/04/24 07:24:18;;;;;;;0.20;0.20;;;10.20;99.90;;;;;;5016730;28;20155;-77
2023/04/24 07:26:46;;;;;;;0.20;0.20;;;10.30;99.90;;;;;;5034489;28;20475;-77
2023/04/24 07:29:12;;;;;;;0.10;0.10;;;10.30;99.90;;;;;;5032889;28;20040;-77
2023/04/24 07:31:37;;;;;;;0.20;0.20;;;10.30;99.90;;;;;;5016550;28;20079;-77
2023/04/24 07:34:03;;;;;;;0.20;0.20;;;10.30;99.90;;;;;;5034347;28;20029;-77
2023/04/24 07:36:29;;;;;;;0.20;0.20;;;10.30;99.90;;;;;;5016051;28;20025;-77
2023/04/24 07:38:55;;;;;;;0.10;0.10;;;10.20;99.90;;;;;;5033107;28;20514;-77
2023/04/24 07:41:21;;;;;;;0.20;0.20;;;10.30;99.90;;;;;;5033928;28;20472;-77
2023/04/24 07:43:46;;;;;;;0.13;0.13;;;10.30;99.90;;;;;;5034724;28;20040;-77
2023/04/24 07:46:12;;;;;;;0.20;0.20;;;10.20;99.90;;;;;;5034776;28;20087;-77
2023/04/24 07:48:40;;;;;;;0.10;0.10;;;10.20;99.90;;;;;;5016051;28;20029;-77
2023/04/24 07:51:06;;;;;;;0.10;0.10;;;10.20;99.90;;;;;;5017386;28;20030;-77
2023/04/24 07:53:31;;;;;;;0.10;0.10;;;10.30;99.90;;;;;;5016528;28;20160;-77
2023/04/24 07:55:57;;;;;;;0.20;0.20;;;10.30;99.90;;;;;;5080073;23;20102;-78
2023/04/24 07:58:23;;;;;;;0.17;0.17;;;10.20;99.90;;;;;;5052938;28;20087;-77
2023/04/24 08:00:51;;;;;;;0.10;0.10;;;10.20;99.90;;;;;;5052380;28;20048;-77
2023/04/24 08:03:19;;;;;;;0.20;0.20;;;10.20;99.90;;;;;;5052959;28;20072;-76
2023/04/24 08:05:46;;;;;;;0.20;0.20;;;10.40;99.90;;;;;;5055067;28;20091;-76
2023/04/24 08:08:11;;;;;;;0.20;0.20;;;10.30;99.90;;;;;;5039270;28;20446;-76
2023/04/24 08:10:37;;;;;;;0.20;0.20;;;10.30;99.90;;;;;;5056837;28;20071;-76
2023/04/24 08:13:02;;;;;;;0.15;0.15;;;10.30;99.90;;;;;;5056627;28;20033;-76
2023/04/24 08:15:28;;;;;;;0.10;0.10;;;10.20;99.90;;;;;;5056807;28;20047;-76
2023/04/24 08:17:53;;;;;;;0.15;0.15;;;10.30;99.90;;;;;;5056704;28;20028;-76
2023/04/24 08:20:19;;;;;;;0.20;0.20;;;10.30;99.90;;;;;;5056291;28;20029;-77
2023/04/24 08:22:54;;;;;;;0.13;0.13;;;10.20;99.90;;;;;;5056979;28;20033;-77
2023/04/24 08:25:20;;;;;;;0.10;0.10;;;10.20;99.90;;;;;;5056176;28;20028;-76
2023/04/24 08:27:45;;;;;;;0.10;0.10;;;10.20;99.90;;;;;;5057182;28;20033;-77
2023/04/24 08:30:11;;;;;;;0.20;0.20;;;10.20;99.90;;;;;;5056534;28;20482;-76
2023/04/24 08:32:37;;;;;;;0.10;0.10;;;10.20;99.90;;;;;;5056364;28;20052;-77
2023/04/24 08:35:03;;;;;;;0.10;0.10;;;10.20;99.90;;;;;;5057571;28;20052;-77
2023/04/24 08:37:28;;;;;;;0.10;0.10;;;10.20;99.90;;;;;;5057048;28;20033;-77
2023/04/24 08:39:54;;;;;;;0.20;0.20;;;10.20;99.90;;;;;;5038662;28;20032;-77
2023/04/24 08:42:20;;;;;;;0.10;0.10;;;10.30;99.90;;;;;;5056537;28;20044;-77
2023/04/24 08:44:48;;;;;;;0.10;0.10;;;10.40;99.90;;;;;;5056626;28;20422;-76
2023/04/24 08:47:15;;;;;;;0.20;0.20;;;10.40;99.90;;;;;;5037635;28;20024;-76
2023/04/24 08:49:41;;;;;;;0.10;0.10;;;10.50;99.90;;;;;;5056315;28;20044;-76
2023/04/24 08:52:06;;;;;;;0.10;0.10;;;10.60;99.90;;;;;;5055905;28;20099;-76
2023/04/24 08:54:35;;;;;;;0.20;0.20;;;10.60;99.90;;;;;;5056029;28;20025;-76
2023/04/24 08:57:01;;;;;;;0.20;0.20;;;10.60;99.90;;;;;;5055141;28;20059;-76
2023/04/24 08:59:28;;;;;;;0.20;0.20;;;10.50;99.90;;;;;;5055985;28;20033;-75
2023/04/24 09:01:58;;;;;;;0.20;0.20;;;10.50;99.90;;;;;;5051018;28;20514;-77
2023/04/24 09:04:24;;;;;;;0.20;0.20;;;10.50;99.90;;;;;;5035936;28;20083;-76
2023/04/24 09:06:57;;;;;;;0.10;0.10;;;10.50;99.90;;;;;;5066980;23;20049;-77
2023/04/24 09:09:24;;;;;;;0.10;0.10;;;10.50;99.90;;;;;;4979017;28;20512;-77
2023/04/24 09:11:55;;;;;;;0.22;0.22;;;10.50;99.90;;;;;;4996901;28;20440;-77
2023/04/24 09:14:22;;;;;;;0.17;0.17;;;10.50;99.90;;;;;;4979989;28;20072;-76
2023/04/24 09:16:48;;;;;;;0.10;0.10;;;10.50;99.90;;;;;;4996045;28;20027;-76
2023/04/24 09:19:14;;;;;;;0.20;0.20;;;10.40;99.90;;;;;;4997116;28;20029;-77
2023/04/24 09:21:41;;;;;;;0.20;0.20;;;10.30;99.90;;;;;;4996990;28;20071;-77
2023/04/24 09:24:13;;;;;;;0.15;0.15;;;10.30;99.90;;;;;;4979397;28;20033;-77
2023/04/24 09:26:46;;;;;;;0.10;0.10;;;10.30;99.90;;;;;;5019766;23;20056;-77
2023/04/24 09:29:32;;;;;;;0.20;0.20;;;10.30;99.90;;;;;;5035824;28;20048;-77
2023/04/24 09:31:58;;;;;;;0.10;0.10;;;10.20;99.90;;;;;;5035565;28;20029;-77
2023/04/24 09:34:26;;;;;;;0.20;0.20;;;10.20;99.90;;;;;;5017841;28;20029;-76
2023/04/24 09:36:52;;;;;;;0.20;0.20;;;10.30;99.90;;;;;;5045376;28;20436;-76
2023/04/24 09:39:21;;;;;;;0.10;0.10;;;10.20;99.90;;;;;;5054538;28;20048;-76
2023/04/24 09:41:52;;;;;;;0.10;0.10;;;10.20;99.90;;;;;;5055133;28;20470;-76
2023/04/24 09:44:25;;;;;;;0.20;0.20;;;10.30;99.90;;;;;;5054884;28;20032;-76
2023/04/24 09:46:52;;;;;;;;;;;10.30;99.90;;;;;;5055711;28;20075;-77
2023/04/24 09:49:24;;;;;;;0.20;0.20;;;10.40;99.90;;;;;;5054751;28;19908;-76
2023/04/24 09:51:49;;;;;;;0.20;0.20;;;10.30;99.90;;;;;;5054468;28;20055;-76
2023/04/24 09:54:17;;;;;;;0.15;0.15;;;10.30;99.90;;;;;;5036781;28;20486;-77
2023/04/24 09:56:45;;;;;;;0.17;0.17;;;10.20;99.90;;;;;;5055020;28;20025;-77
2023/04/24 09:59:11;;;;;;;0.20;0.20;;;10.20;99.90;;;;;;5054648;28;20028;-77
2023/04/24 10:01:38;;;;;;;0.20;0.20;;;10.20;99.90;;;;;;5054685;28;20581;-76
2023/04/24 10:04:04;;;;;;;0.20;0.20;;;10.20;99.90;;;;;;5037049;28;20060;-76
2023/04/24 10:06:36;;;;;;;0.20;0.20;;;10.20;99.90;;;;;;5054079;28;20025;-76
2023/04/24 10:09:03;;;;;;;0.10;0.10;;;10.30;99.90;;;;;;5054533;28;20049;-77
2023/04/24 10:11:30;;;;;;;0.20;0.20;;;10.30;99.90;;;;;;5054334;28;20024;-77
2023/04/24 10:13:57;;;;;;;0.10;0.10;;;10.40;99.90;;;;;;5054170;28;20094;-77
2023/04/24 10:16:23;;;;;;;0.20;0.20;;;10.50;99.90;;;;;;5054323;28;20021;-77
2023/04/24 10:18:49;;;;;;;0.10;0.10;;;10.50;99.90;;;;;;5036217;28;20027;-76
2023/04/24 10:21:16;;;;;;;0.20;0.20;;;10.50;99.90;;;;;;5054538;28;20025;-77
2023/04/24 10:23:42;;;;;;;0.13;0.13;;;10.50;99.90;;;;;;5054282;28;20025;-77
2023/04/24 10:26:17;;;;;;;0.20;0.20;;;10.50;99.90;;;;;;5036352;28;20032;-76
2023/04/24 10:28:46;;;;;;;0.20;0.20;;;10.60;99.90;;;;;;5053538;28;20047;-76
2023/04/24 10:31:15;;;;;;;0.10;0.10;;;10.60;99.90;;;;;;5053900;28;20057;-77
2023/04/24 10:33:42;;;;;;;0.10;0.10;;;10.80;99.90;;;;;;5054244;28;20024;-76
2023/04/24 10:36:11;;;;;;;0.10;0.10;;;10.80;99.90;;;;;;5055388;23;20034;-77
2023/04/24 10:38:40;;;;;;;0.20;0.20;;;10.90;99.90;;;;;;5016541;28;20590;-77
2023/04/24 10:41:15;;;;;;;0.10;0.10;;;10.90;99.90;;;;;;5015564;28;20029;-77
2023/04/24 10:43:42;;;;;;;0.20;0.20;;;11.10;99.90;;;;;;5016167;28;20060;-77
2023/04/24 10:46:10;;;;;;;0.20;0.20;;;11.20;99.90;;;;;;5033555;28;20072;-77
2023/04/24 10:48:36;;;;;;;0.15;0.15;;;11.20;99.90;;;;;;5015701;28;20430;-77
2023/04/24 10:51:01;;;;;;;0.10;0.10;;;11.20;99.90;;;;;;5033415;28;20509;-77
2023/04/24 10:53:29;;;;;;;0.20;0.20;;;11.10;99.90;;;;;;4990912;28;20034;-76
2023/04/24 10:55:57;;;;;;;0.10;0.10;;;11.10;99.90;;;;;;5004897;28;20430;-77
2023/04/24 10:58:24;;;;;;;0.20;0.20;;;11.10;99.90;;;;;;5012002;28;20057;-76
2023/04/24 11:00:59;;;;;;;0.20;0.20;;;11.20;99.90;;;;;;5012275;28;20022;-76
2023/04/24 11:03:29;;;;;;;0.10;0.10;;;11.30;99.90;;;;;;5026939;28;20022;-76
2023/04/24 11:06:04;;;;;;;0.10;0.10;;;11.30;99.90;;;;;;5008446;28;20026;-77
2023/04/24 11:08:43;;;;;;;0.15;0.15;;;11.30;99.90;;;;;;5015277;28;20030;-76
2023/04/24 11:11:14;;;;;;;0.10;0.10;;;11.40;99.90;;;;;;5016443;28;20132;-76
2023/04/24 11:13:55;;;;;;;0.10;0.10;;;11.50;99.90;;;;;;5033392;28;20025;-77
2023/04/24 11:16:25;;;;;;;0.10;0.10;;;11.60;99.90;;;;;;5015773;28;20152;-76
2023/04/24 11:19:07;;;;;;;0.20;0.20;;;11.60;99.90;;;;;;5033190;28;20084;-76
2023/04/24 11:21:47;;;;;;;0.20;0.20;;;12.00;99.90;;;;;;5032568;28;20479;-75
2023/04/24 11:24:51;;;;;;;0.10;0.10;;;12.70;99.90;;;;;;5033389;28;20029;-75
2023/04/24 11:27:19;;;;;;;0.20;0.20;;;12.90;99.90;;;;;;5022195;28;20106;-75
2023/04/24 11:29:57;;;;;;;0.20;0.20;;;12.70;99.90;;;;;;5032932;28;20092;-76
2023/04/24 11:32:27;;;;;;;0.20;0.20;;;12.50;99.90;;;;;;5003735;28;20050;-75
2023/04/24 11:35:02;;;;;;;0.20;0.20;;;12.20;99.90;;;;;;4995608;28;20049;-76
2023/04/24 11:37:36;;;;;;;0.17;0.17;;;12.20;99.90;;;;;;4985288;28;20025;-75
2023/04/24 11:40:03;;;;;;;0.20;0.20;;;12.10;99.90;;;;;;5014292;28;20030;-76
2023/04/24 11:42:37;;;;;;;0.20;0.20;;;11.90;99.90;;;;;;5033058;28;20028;-76
2023/04/24 11:45:07;;;;;;;;;;;11.80;99.90;;;;;;5033415;28;20556;-76
2023/04/24 11:47:35;;;;;;;0.15;0.15;;;11.60;99.90;;;;;;5032504;28;19905;-75
2023/04/24 11:50:02;;;;;;;0.10;0.10;;;11.60;99.90;;;;;;5011272;28;20105;-75
2023/04/24 11:52:28;;;;;;;0.20;0.20;;;11.50;99.90;;;;;;5005746;28;20395;-76
2023/04/24 11:54:54;;;;;;;0.20;0.20;;;11.40;99.90;;;;;;5032395;28;20013;-75
2023/04/24 11:57:21;;;;;;;0.20;0.20;;;11.50;99.90;;;;;;5032417;28;20029;-74
2023/04/24 11:59:47;;;;;;;0.10;0.10;;;11.50;99.90;;;;;;5032502;28;20022;-75
2023/04/24 12:02:26;;;;;;;0.20;0.20;;;11.50;99.90;;;;;;5016086;28;20082;-75
2023/04/24 12:04:53;;;;;;;0.20;0.20;;;11.50;99.90;;;;;;5032597;28;20025;-75
2023/04/24 12:07:19;;;;;;;0.20;0.20;;;11.50;99.90;;;;;;5015294;28;20025;-76
2023/04/24 12:09:47;;;;;;;0.10;0.10;;;11.40;99.90;;;;;;5032489;28;20387;-76
2023/04/24 12:12:17;;;;;;;0.13;0.13;;;11.30;99.90;;;;;;5029785;28;20041;-76
2023/04/24 12:14:52;;;;;;;0.20;0.20;;;11.10;99.90;;;;;;5005247;28;20402;-75
2023/04/24 12:17:23;;;;;;;0.20;0.20;;;11.00;99.90;;;;;;5032651;28;20123;-75
2023/04/24 12:19:51;;;;;;;0.20;0.20;;;11.00;99.90;;;;;;5032266;28;20029;-75
2023/04/24 12:22:17;;;;;;;0.20;0.20;;;10.80;99.90;;;;;;5014974;28;20026;-75
2023/04/24 12:25:03;;;;;;;0.20;0.20;;;10.80;99.90;;;;;;5032854;28;20036;-75
2023/04/24 12:27:33;;;;;;;0.20;0.20;;;10.70;99.90;;;;;;5014980;28;20025;-75
2023/04/24 12:30:01;;;;;;;0.10;0.10;;;10.80;99.90;;;;;;5032125;28;20395;-75
2023/04/24 12:32:27;;;;;;;0.20;0.20;;;10.80;99.90;;;;;;5014648;28;20120;-75
2023/04/24 12:34:53;;;;;;;0.10;0.10;;;10.80;99.90;;;;;;5032693;28;20096;-75
2023/04/24 12:37:19;;;;;;;0.20;0.20;;;11.00;99.90;;;;;;5074293;23;20132;-75
2023/04/24 12:40:08;;;;;;;0.20;0.20;;;11.10;99.90;;;;;;5052428;28;20526;-76
2023/04/24 12:42:34;;;;;;;0.20;0.20;;;11.30;99.90;;;;;;5051765;28;20029;-74
2023/04/24 12:45:05;;;;;;;0.20;0.20;;;11.60;99.90;;;;;;5034529;28;20143;-74
2023/04/24 12:47:32;;;;;;;0.20;0.20;;;11.70;99.90;;;;;;5052353;28;20032;-75